Time;durP1;ratioP1;P1;durP2;ratioP2;P2;SDS_P1;SDS_P2;PMS_P1;PMS_P2;Temp;Humidity;BMP_temperature;BMP_pressure;BME280_temperature;BME280_humidity;BME280_pressure;Samples;Min_cycle;Max_cycle;Signal;HPM_P1;HPM_P2
2022/11/28 00:04:06;;;;;;;2.70;2.50;;;;;;;3.34;100.00;98475.13;15284697;19;20416;-83
2022/11/28 00:09:34;;;;;;;2.60;2.40;;;;;;;3.35;100.00;98460.81;15283757;19;20015;-83
2022/11/28 00:14:58;;;;;;;2.72;2.53;;;;;;;3.38;100.00;98459.78;15286433;19;20018;-85
2022/11/28 00:20:23;;;;;;;2.30;2.10;;;;;;;3.36;100.00;98448.38;15279755;19;20017;-83
2022/11/28 00:25:50;;;;;;;2.30;2.10;;;;;;;3.34;100.00;98450.31;15282105;19;20021;-84
2022/11/28 00:31:15;;;;;;;2.22;2.03;;;;;;;3.35;100.00;98457.34;15284285;19;20042;-85
2022/11/28 00:36:39;;;;;;;2.40;2.17;;;;;;;3.34;100.00;98448.50;15288051;19;20101;-84
2022/11/28 00:42:15;;;;;;;2.83;2.47;;;;;;;3.33;100.00;98438.81;15278741;19;20443;-84
2022/11/28 00:47:40;;;;;;;2.50;2.30;;;;;;;3.34;100.00;98443.19;15282826;19;20510;-84
2022/11/28 00:53:04;;;;;;;2.78;2.35;;;;;;;3.34;100.00;98437.00;15282903;19;20017;-83
2022/11/28 00:58:32;;;;;;;2.40;2.20;;;;;;;3.35;100.00;98436.88;15278868;19;20479;-84
2022/11/28 01:03:57;;;;;;;2.40;2.20;;;;;;;3.36;100.00;98421.75;15279383;19;20014;-82
2022/11/28 01:09:32;;;;;;;2.30;2.10;;;;;;;3.36;100.00;98421.75;15315587;19;20018;-81
2022/11/28 01:14:59;;;;;;;2.45;2.25;;;;;;;3.37;100.00;98412.81;15311623;19;20031;-85
2022/11/28 01:20:24;;;;;;;2.20;2.00;;;;;;;3.38;100.00;98404.69;15303593;19;20440;-83
2022/11/28 01:25:48;;;;;;;2.22;2.03;;;;;;;3.39;100.00;98393.06;15280152;19;20016;-85
2022/11/28 01:31:18;;;;;;;2.20;1.90;;;;;;;3.42;100.00;98380.50;15281582;19;20021;-86
2022/11/28 01:36:42;;;;;;;2.22;2.00;;;;;;;3.47;100.00;98373.00;15280867;19;20025;-87
2022/11/28 01:42:13;;;;;;;2.25;2.05;;;;;;;3.48;100.00;98354.25;15275663;19;20015;-85
2022/11/28 01:47:41;;;;;;;2.23;2.07;;;;;;;3.49;100.00;98339.09;15282215;19;20049;-84
2022/11/28 01:53:10;;;;;;;1.95;1.85;;;;;;;3.50;100.00;98327.47;15285713;19;20014;-84
2022/11/28 01:58:38;;;;;;;2.40;2.00;;;;;;;3.50;100.00;98323.00;15285214;19;20420;-81
2022/11/28 02:04:07;;;;;;;2.40;2.20;;;;;;;3.49;100.00;98310.66;15291159;19;20018;-84
2022/11/28 02:09:32;;;;;;;2.05;1.90;;;;;;;3.48;100.00;98316.09;15293310;19;20022;-83
2022/11/28 02:15:19;;;;;;;1.92;1.83;;;;;;;3.49;100.00;98315.13;15293797;19;20760;-84
2022/11/28 02:21:15;;;;;;;2.17;2.00;;;;;;;3.47;100.00;98299.28;15293153;19;20031;-84
2022/11/28 02:27:15;;;;;;;1.80;1.70;;;;;;;3.48;100.00;98295.63;15304050;19;20029;-82
2022/11/28 02:33:15;;;;;;;2.17;1.80;;;;;;;3.48;100.00;98282.31;15362300;19;20002;-83
2022/11/28 02:39:08;;;;;;;1.98;1.60;;;;;;;3.47;100.00;98277.13;15303183;19;20010;-83
2022/11/28 02:44:43;;;;;;;1.70;1.60;;;;;;;3.47;100.00;98277.13;15318905;19;20357;-84
2022/11/28 02:50:16;;;;;;;1.63;1.52;;;;;;;3.47;100.00;98267.31;15294414;19;20010;-81
2022/11/28 02:55:45;;;;;;;1.77;1.60;;;;;;;3.48;100.00;98274.34;15298777;19;20026;-84
2022/11/28 03:01:11;;;;;;;1.98;1.65;;;;;;;3.48;100.00;98268.13;15284636;19;20019;-85
2022/11/28 03:06:49;;;;;;;1.67;1.58;;;;;;;3.50;100.00;98251.09;15294981;19;20471;-84
2022/11/28 03:12:28;;;;;;;1.67;1.50;;;;;;;3.49;100.00;98265.38;15291033;19;20456;-88
2022/11/28 03:18:03;;;;;;;2.45;1.67;;;;;;;3.49;100.00;98260.06;15293588;19;20082;-83
2022/11/28 03:23:32;;;;;;;1.60;1.50;;;;;;;3.54;100.00;98257.03;15296948;19;20098;-83
2022/11/28 03:29:04;;;;;;;1.98;1.77;;;;;;;3.53;100.00;98250.00;15295024;19;20010;-82
2022/11/28 03:34:36;;;;;;;2.38;2.08;;;;;;;3.53;100.00;98256.16;15295079;19;20007;-81
2022/11/28 03:40:06;;;;;;;2.93;2.17;;;;;;;3.54;100.00;98251.69;15281460;19;20426;-83
2022/11/28 03:45:37;;;;;;;3.83;2.10;;;;;;;3.57;100.00;98261.25;15296320;19;20025;-83
2022/11/28 03:51:07;;;;;;;2.43;2.23;;;;;;;3.54;100.00;98246.38;15291525;19;20007;-85
2022/11/28 03:56:39;;;;;;;3.85;2.35;;;;;;;3.52;100.00;98246.50;15289387;19;20523;-82
2022/11/28 04:02:23;;;;;;;2.90;2.58;;;;;;;3.51;100.00;98254.59;15283754;19;21476;-83
2022/11/28 04:07:52;;;;;;;2.85;2.53;;;;;;;3.52;100.00;98249.16;15286521;19;20017;-82
2022/11/28 04:13:23;;;;;;;2.88;2.60;;;;;;;3.51;100.00;98220.84;15290378;19;20006;-84
2022/11/28 04:19:00;;;;;;;3.10;2.70;;;;;;;3.49;100.00;98200.59;15325690;19;20018;-85
2022/11/28 04:24:30;;;;;;;3.17;2.72;;;;;;;3.50;100.00;98192.50;15342497;19;20002;-86
2022/11/28 04:29:59;;;;;;;3.22;2.70;;;;;;;3.47;100.00;98197.22;15298309;19;20035;-84
2022/11/28 04:35:33;;;;;;;2.80;2.50;;;;;;;3.46;100.00;98190.22;15292142;19;20026;-85
2022/11/28 04:41:10;;;;;;;2.72;2.50;;;;;;;3.45;100.00;98199.16;15285732;19;20034;-84
2022/11/28 04:46:42;;;;;;;2.80;2.60;;;;;;;3.44;100.00;98210.78;15288983;19;20010;-85
2022/11/28 04:52:14;;;;;;;3.38;2.67;;;;;;;3.43;100.00;98201.94;15281758;19;20037;-83
2022/11/28 04:57:41;;;;;;;2.55;2.35;;;;;;;3.42;100.00;98197.56;15284395;19;20029;-82
2022/11/28 05:03:15;;;;;;;7.78;5.20;;;;;;;3.41;100.00;98182.56;15280271;19;20022;-82
2022/11/28 05:08:43;;;;;;;3.17;2.88;;;;;;;3.40;100.00;98191.53;15310441;19;20011;-81
2022/11/28 05:14:07;;;;;;;3.78;3.03;;;;;;;3.38;100.00;98191.63;15329705;19;20010;-83
2022/11/28 05:19:33;;;;;;;2.90;2.60;;;;;;;3.37;100.00;98189.94;15275716;19;20018;-83
2022/11/28 05:25:00;;;;;;;2.60;2.40;;;;;;;3.36;100.00;98176.75;15282442;19;20583;-85
2022/11/28 05:30:26;;;;;;;2.63;2.42;;;;;;;3.34;100.00;98166.25;15279550;19;20019;-84
2022/11/28 05:35:51;;;;;;;3.22;2.65;;;;;;;3.33;100.00;98169.88;15283076;19;20018;-84
2022/11/28 05:41:31;;;;;;;3.05;2.50;;;;;;;3.32;100.00;98167.31;15276452;19;20010;-84
2022/11/28 05:46:56;;;;;;;2.40;2.20;;;;;;;3.32;100.00;98164.66;15276767;19;20029;-83
2022/11/28 05:52:20;;;;;;;2.22;2.03;;;;;;;3.33;100.00;98161.88;15279300;19;20018;-85
2022/11/28 05:57:48;;;;;;;2.40;2.20;;;;;;;3.32;100.00;98157.53;15275068;19;20022;-84
2022/11/28 06:03:13;;;;;;;2.40;2.20;;;;;;;3.32;100.00;98162.84;15274968;19;20010;-84
2022/11/28 06:08:31;;;;;;;2.53;2.33;;;;;;;3.35;100.00;98170.56;15278825;19;20082;-84
2022/11/28 06:13:59;;;;;;;2.50;2.30;;;;;;;3.39;100.00;98177.38;15282152;19;20032;-85
2022/11/28 06:19:23;;;;;;;4.50;2.38;;;;;;;3.44;100.00;98181.50;15273053;19;20022;-86
2022/11/28 06:24:48;;;;;;;2.40;2.20;;;;;;;3.45;100.00;98165.38;15280488;19;20014;-84
2022/11/28 06:30:16;;;;;;;3.03;2.30;;;;;;;3.46;100.00;98161.75;15274386;19;20384;-83
2022/11/28 06:35:41;;;;;;;3.85;2.72;;;;;;;3.47;100.00;98159.94;15278092;19;20025;-84
2022/11/28 06:41:14;;;;;;;2.30;2.10;;;;;;;3.49;100.00;98152.66;15274214;19;20025;-85
2022/11/28 06:46:42;;;;;;;2.42;2.22;;;;;;;3.47;100.00;98147.47;15279728;19;20021;-84
2022/11/28 06:52:07;;;;;;;2.10;2.00;;;;;;;3.48;100.00;98138.50;15271917;19;20014;-86
2022/11/28 06:57:34;;;;;;;2.53;2.30;;;;;;;3.48;100.00;98134.97;15275540;19;20030;-85
2022/11/28 07:03:01;;;;;;;2.60;2.40;;;;;;;3.48;100.00;98137.63;15269208;19;20014;-85
2022/11/28 07:08:26;;;;;;;2.78;2.30;;;;;;;3.49;100.00;98131.34;15274659;19;20453;-83
2022/11/28 07:13:51;;;;;;;2.40;2.20;;;;;;;3.50;100.00;98123.25;15291983;19;20054;-84
2022/11/28 07:19:21;;;;;;;2.63;2.42;;;;;;;3.51;100.00;98113.44;15285831;19;20022;-84
2022/11/28 07:24:47;;;;;;;3.47;2.40;;;;;;;3.53;100.00;98101.66;15286823;19;20084;-84
2022/11/28 07:30:13;;;;;;;2.65;2.20;;;;;;;3.54;100.00;98097.22;15306175;19;20019;-83
2022/11/28 07:35:41;;;;;;;2.60;2.40;;;;;;;3.57;100.00;98094.31;15338936;19;20014;-85
2022/11/28 07:41:13;;;;;;;4.10;2.40;;;;;;;3.59;100.00;98084.34;15284622;19;20041;-84
2022/11/28 07:46:43;;;;;;;2.60;2.40;;;;;;;3.63;100.00;98085.78;15290544;19;20022;-83
2022/11/28 07:52:10;;;;;;;3.17;2.47;;;;;;;3.66;100.00;98082.88;15361165;19;20011;-83
2022/11/28 07:57:35;;;;;;;2.78;2.58;;;;;;;3.71;100.00;98071.84;15299986;19;20033;-85
2022/11/28 08:02:59;;;;;;;4.70;2.50;;;;;;;3.77;100.00;98070.50;15285715;19;20101;-83
2022/11/28 08:08:27;;;;;;;2.83;2.50;;;;;;;3.81;100.00;98079.94;15285077;19;20021;-83
2022/11/28 08:13:52;;;;;;;2.53;2.33;;;;;;;3.87;100.00;98086.59;15288380;19;20086;-84
2022/11/28 08:19:17;;;;;;;2.47;2.25;;;;;;;3.93;100.00;98086.91;15281580;19;20475;-82
2022/11/28 08:24:47;;;;;;;2.72;2.47;;;;;;;3.99;100.00;98115.72;15288671;19;20089;-85
2022/11/28 08:30:13;;;;;;;3.53;2.20;;;;;;;4.06;100.00;98129.38;15281605;19;20010;-85
2022/11/28 08:35:37;;;;;;;2.65;2.45;;;;;;;4.08;100.00;98100.78;15288728;19;20042;-84
2022/11/28 08:41:13;;;;;;;3.75;2.42;;;;;;;4.12;100.00;98109.38;15284819;19;20348;-82
2022/11/28 08:46:38;;;;;;;3.42;2.53;;;;;;;4.14;100.00;98121.59;15287547;19;20082;-83
2022/11/28 08:52:02;;;;;;;2.85;2.30;;;;;;;4.23;100.00;98103.97;15286124;19;20011;-83
2022/11/28 08:57:30;;;;;;;2.40;2.20;;;;;;;4.29;100.00;98097.28;15288479;19;20017;-83
2022/11/28 09:02:54;;;;;;;2.88;2.50;;;;;;;4.35;100.00;98111.91;15282118;19;20470;-82
2022/11/28 09:08:21;;;;;;;2.55;2.33;;;;;;;4.40;100.00;98121.22;15296484;19;20011;-84
2022/11/28 09:13:49;;;;;;;4.55;2.30;;;;;;;4.47;100.00;98105.53;15286408;19;20526;-84
2022/11/28 09:19:13;;;;;;;3.08;2.40;;;;;;;4.55;100.00;98119.06;15290135;19;20024;-83
2022/11/28 09:24:37;;;;;;;3.78;2.13;;;;;;;4.61;100.00;98129.22;15288328;19;20026;-83
2022/11/28 09:30:06;;;;;;;2.42;2.20;;;;;;;4.71;100.00;98125.78;15282117;19;20074;-83
2022/11/28 09:35:32;;;;;;;2.88;2.10;;;;;;;4.81;100.00;98132.00;15298198;19;20085;-84
2022/11/28 09:40:57;;;;;;;3.10;2.30;;;;;;;4.86;100.00;98127.13;15296393;19;20014;-83
2022/11/28 09:46:32;;;;;;;2.63;2.30;;;;;;;4.95;100.00;98122.81;15301677;19;20078;-85
2022/11/28 09:52:13;;;;;;;3.10;2.47;;;;;;;4.96;100.00;98111.16;15302857;19;20369;-84
2022/11/28 09:57:41;;;;;;;3.60;2.43;;;;;;;5.02;100.00;98113.28;15314286;19;20017;-83
2022/11/28 10:03:27;;;;;;;3.58;2.22;;;;;;;5.04;100.00;98115.81;15328013;19;20011;-84
2022/11/28 10:09:08;;;;;;;2.50;2.28;;;;;;;5.09;100.00;98110.94;15361610;19;20021;-86
2022/11/28 10:14:51;;;;;;;2.67;2.10;;;;;;;5.08;100.00;98114.59;15348117;19;20018;-88
2022/11/28 10:20:27;;;;;;;2.72;2.20;;;;;;;5.10;100.00;98107.28;15343922;19;20014;-84
2022/11/28 10:25:57;;;;;;;3.25;2.42;;;;;;;5.13;100.00;98101.66;15353486;19;20006;-85
2022/11/28 10:31:27;;;;;;;5.23;2.60;;;;;;;5.20;100.00;98108.16;15359236;19;20029;-85
2022/11/28 10:36:59;;;;;;;3.75;2.47;;;;;;;5.19;100.00;98090.47;15304419;19;20035;-84
2022/11/28 10:42:32;;;;;;;2.92;2.50;;;;;;;5.22;100.00;98081.31;15342188;19;20026;-83
2022/11/28 10:48:12;;;;;;;2.50;2.30;;;;;;;5.24;100.00;98090.88;15303855;19;20367;-82
2022/11/28 10:54:13;;;;;;;2.75;2.05;;;;;;;5.29;100.00;98082.47;15306086;19;20017;-85
2022/11/28 10:59:49;;;;;;;2.77;2.17;;;;;;;5.31;100.00;98068.97;15297488;19;20366;-83
2022/11/28 11:05:16;;;;;;;2.50;2.10;;;;;;;5.33;100.00;98077.72;15295244;19;20859;-84
2022/11/28 11:10:50;;;;;;;3.08;2.70;;;;;;;5.34;100.00;98076.72;15294432;19;20013;-83
2022/11/28 11:16:18;;;;;;;4.70;2.35;;;;;;;5.36;100.00;98058.72;15302560;19;20074;-83
2022/11/28 11:21:43;;;;;;;2.72;2.42;;;;;;;5.37;100.00;98068.41;15301406;19;20014;-84
2022/11/28 11:27:24;;;;;;;2.83;2.20;;;;;;;5.31;100.00;98060.97;15301705;19;20022;-84
2022/11/28 11:32:42;;;;;;;2.63;2.30;;;;;;;5.29;100.00;98057.59;15298661;19;20014;-85
2022/11/28 11:38:28;;;;;;;3.60;2.63;;;;;;;5.24;100.00;98040.13;15297051;19;20314;-87
2022/11/28 11:44:05;;;;;;;2.55;2.33;;;;;;;5.24;100.00;98056.16;15294649;19;20022;-85
2022/11/28 11:49:31;;;;;;;2.50;2.28;;;;;;;5.31;100.00;98058.31;15297648;19;20017;-85
2022/11/28 11:55:09;;;;;;;2.60;2.40;;;;;;;5.31;100.00;98058.31;15298684;19;20029;-86
2022/11/28 12:00:40;;;;;;;2.60;2.40;;;;;;;5.34;100.00;98058.03;15299705;19;20018;-85
2022/11/28 12:06:09;;;;;;;4.13;2.80;;;;;;;5.36;100.00;98056.91;15297914;19;20010;-84
2022/11/28 12:11:38;;;;;;;3.30;3.00;;;;;;;5.38;100.00;98051.41;15293712;19;20078;-86
2022/11/28 12:17:40;;;;;;;3.53;2.58;;;;;;;5.38;100.00;98060.28;15295486;19;20055;-84
2022/11/28 12:23:22;;;;;;;3.10;2.70;;;;;;;5.40;100.00;98060.13;15291805;19;20365;-84
2022/11/28 12:29:00;;;;;;;3.85;3.00;;;;;;;5.40;100.00;98054.78;15293457;19;20015;-85
2022/11/28 12:34:39;;;;;;;3.35;2.72;;;;;;;5.42;100.00;98058.19;15293869;19;20018;-84
2022/11/28 12:40:17;;;;;;;3.38;2.80;;;;;;;5.44;100.00;98050.88;15290815;19;20010;-84
2022/11/28 12:45:47;;;;;;;3.13;2.42;;;;;;;5.43;100.00;98054.53;15287381;19;20013;-85
2022/11/28 12:51:30;;;;;;;4.87;2.70;;;;;;;5.46;100.00;98058.75;15294649;19;20007;-83
2022/11/28 12:56:56;;;;;;;;;;;;;;;5.42;100.00;98046.63;15305905;19;20016;-82
2022/11/28 13:02:35;;;;;;;3.78;2.42;;;;;;;5.48;100.00;98043.44;15307424;19;19922;-84
2022/11/28 13:08:19;;;;;;;3.22;2.70;;;;;;;5.48;100.00;98051.44;15345395;19;20023;-83
2022/11/28 13:13:51;;;;;;;2.80;2.50;;;;;;;5.49;100.00;98045.13;15317475;19;20025;-86
2022/11/28 13:19:36;;;;;;;4.53;3.00;;;;;;;5.45;100.00;98041.88;15285161;19;20373;-84
2022/11/28 13:25:11;;;;;;;4.05;2.60;;;;;;;5.49;100.00;98047.78;15288182;19;20090;-84
2022/11/28 13:30:41;;;;;;;2.92;2.63;;;;;;;5.47;100.00;98041.72;15288263;19;20006;-84
2022/11/28 13:36:08;;;;;;;3.30;3.00;;;;;;;5.47;100.00;98049.75;15289853;19;20015;-83
2022/11/28 13:42:08;;;;;;;3.90;2.58;;;;;;;5.45;100.00;98052.56;15286639;19;20021;-85
2022/11/28 13:47:52;;;;;;;3.97;2.47;;;;;;;5.44;100.00;98037.53;15347193;19;20006;-83
2022/11/28 13:53:32;;;;;;;2.97;2.67;;;;;;;5.44;100.00;98039.34;15314361;19;20026;-84
2022/11/28 13:59:03;;;;;;;3.10;2.67;;;;;;;5.44;100.00;98042.88;15288823;19;20351;-85
2022/11/28 14:04:29;;;;;;;2.88;2.58;;;;;;;5.44;100.00;98029.50;15284526;19;20086;-83
2022/11/28 14:10:04;;;;;;;2.75;2.38;;;;;;;5.42;100.00;98031.47;15285038;19;20738;-82
2022/11/28 14:15:40;;;;;;;6.22;2.92;;;;;;;5.44;100.00;98042.00;15283935;19;20031;-83
2022/11/28 14:21:12;;;;;;;3.15;2.78;;;;;;;5.43;100.00;98046.50;15276823;19;20024;-84
2022/11/28 14:26:41;;;;;;;3.03;2.75;;;;;;;5.39;100.00;98037.06;15280519;19;20021;-83
2022/11/28 14:32:25;;;;;;;4.93;2.70;;;;;;;5.36;100.00;98048.88;15282189;19;20046;-84
2022/11/28 14:38:01;;;;;;;5.20;2.78;;;;;;;5.31;100.00;98055.63;15284121;19;20355;-85
2022/11/28 14:43:42;;;;;;;3.08;2.80;;;;;;;5.24;100.00;98048.16;15283188;19;20018;-85
2022/11/28 14:49:25;;;;;;;3.67;2.92;;;;;;;5.19;100.00;98055.75;15279511;19;20713;-84
2022/11/28 14:55:14;;;;;;;4.38;3.03;;;;;;;5.14;100.00;98049.94;15288417;19;20026;-85
2022/11/28 15:00:52;;;;;;;4.88;3.03;;;;;;;5.09;100.00;98049.53;15286952;19;20022;-81
2022/11/28 15:06:27;;;;;;;4.90;3.10;;;;;;;5.06;100.00;98044.44;15286825;19;20026;-84
2022/11/28 15:12:14;;;;;;;3.35;2.80;;;;;;;4.99;100.00;98048.66;15306809;19;20038;-86
2022/11/28 15:17:45;;;;;;;3.72;2.72;;;;;;;4.96;100.00;98051.59;15296955;19;20014;-82
2022/11/28 15:23:14;;;;;;;3.53;3.10;;;;;;;4.93;100.00;98048.19;15304829;19;20089;-81
2022/11/28 15:29:09;;;;;;;3.60;3.10;;;;;;;4.90;100.00;98050.31;15295159;19;20030;-85
2022/11/28 15:34:49;;;;;;;3.28;2.92;;;;;;;4.86;100.00;98052.41;15316732;19;20018;-85
2022/11/28 15:40:31;;;;;;;3.83;3.20;;;;;;;4.82;100.00;98048.28;15327105;19;20058;-84
2022/11/28 15:46:52;;;;;;;;;;;;;;;;;;;;;
2022/11/28 15:59:07;;;;;;;3.50;3.05;;;;;;;4.75;100.00;98047.16;15275255;19;20010;-85
2022/11/28 16:05:05;;;;;;;3.40;2.92;;;;;;;4.72;100.00;98047.41;15276988;19;20448;-82
2022/11/28 16:10:40;;;;;;;4.15;3.40;;;;;;;4.71;100.00;98059.88;15283342;19;20053;-84
2022/11/28 16:16:45;;;;;;;5.67;3.00;;;;;;;4.67;100.00;98057.63;15292002;19;20364;-84
2022/11/28 16:22:27;;;;;;;3.70;2.92;;;;;;;4.63;100.00;98055.25;15291626;19;20279;-85
2022/11/28 16:28:44;;;;;;;;;;;;;;;;;;;;;
2022/11/28 16:35:02;;;;;;;3.60;3.20;;;;;;;4.57;100.00;98061.09;15283676;19;20029;-85
2022/11/28 16:40:29;;;;;;;4.70;3.28;;;;;;;4.56;100.00;98056.72;15272498;19;20096;-83
2022/11/28 16:46:05;;;;;;;5.32;3.10;;;;;;;4.54;100.00;98064.03;15283072;19;20828;-84
2022/11/28 16:51:36;;;;;;;4.50;3.40;;;;;;;4.50;100.00;98054.59;15280487;19;20020;-85
2022/11/28 16:57:05;;;;;;;3.57;3.13;;;;;;;4.49;100.00;98060.91;15297757;19;20046;-83
2022/11/28 17:02:29;;;;;;;4.30;3.38;;;;;;;4.46;100.00;98069.19;15349276;19;20011;-84
2022/11/28 17:07:57;;;;;;;4.00;3.60;;;;;;;4.43;100.00;98077.44;15294975;19;20018;-84
2022/11/28 17:13:23;;;;;;;3.97;3.40;;;;;;;4.40;100.00;98072.38;15292375;19;20022;-86
2022/11/28 17:18:48;;;;;;;3.67;3.38;;;;;;;4.37;100.00;98084.13;15284914;19;20015;-85
2022/11/28 17:24:21;;;;;;;3.88;3.45;;;;;;;4.34;100.00;98088.88;15281595;19;20046;-86
2022/11/28 17:29:46;;;;;;;4.18;3.58;;;;;;;4.31;100.00;98090.00;15281471;19;20081;-85
2022/11/28 17:35:18;;;;;;;4.10;3.70;;;;;;;4.31;100.00;98098.84;15275495;19;20742;-86
2022/11/28 17:40:46;;;;;;;4.82;3.67;;;;;;;4.31;100.00;98096.16;15276872;19;20021;-84
2022/11/28 17:46:12;;;;;;;4.13;3.72;;;;;;;4.30;100.00;98094.47;15282159;19;20463;-82
2022/11/28 17:51:37;;;;;;;4.10;3.70;;;;;;;4.31;100.00;98092.66;15283078;19;20018;-84
2022/11/28 17:57:04;;;;;;;5.25;4.75;;;;;;;4.30;100.00;98093.66;15282519;19;20038;-81
2022/11/28 18:02:29;;;;;;;4.57;3.80;;;;;;;4.30;100.00;98099.81;15275854;19;20022;-83
2022/11/28 18:07:55;;;;;;;4.57;4.15;;;;;;;4.31;100.00;98101.50;15276367;19;20104;-86
2022/11/28 18:13:24;;;;;;;4.68;4.20;;;;;;;4.34;100.00;98091.56;15282155;19;20031;-84
2022/11/28 18:18:49;;;;;;;4.95;4.32;;;;;;;4.34;100.00;98096.88;15286556;19;20023;-85
2022/11/28 18:24:14;;;;;;;5.50;4.50;;;;;;;4.34;100.00;98099.56;15285717;19;20034;-83
2022/11/28 18:29:41;;;;;;;4.90;3.78;;;;;;;4.34;100.00;98099.56;15298656;19;20003;-82
2022/11/28 18:35:07;;;;;;;4.65;4.15;;;;;;;4.32;100.00;98092.53;15341119;19;20047;-84
2022/11/28 18:40:34;;;;;;;4.53;3.83;;;;;;;4.32;100.00;98095.19;15276586;19;20015;-86
2022/11/28 18:46:10;;;;;;;4.95;3.95;;;;;;;4.36;100.00;98097.59;15280870;19;20030;-87
2022/11/28 18:51:36;;;;;;;4.63;3.63;;;;;;;4.36;100.00;98089.59;15286345;19;20010;-85
2022/11/28 18:57:03;;;;;;;6.07;3.65;;;;;;;4.39;100.00;98092.03;15276647;19;20015;-83
2022/11/28 19:02:31;;;;;;;4.70;4.20;;;;;;;4.39;100.00;98108.84;15272249;19;20006;-83
2022/11/28 19:07:57;;;;;;;4.55;4.15;;;;;;;4.36;100.00;98108.28;15291252;19;20010;-83
2022/11/28 19:13:21;;;;;;;4.88;4.25;;;;;;;4.34;100.00;98110.22;15286360;19;20021;-82
2022/11/28 19:18:50;;;;;;;5.07;4.20;;;;;;;4.35;100.00;98112.75;15283585;19;20408;-84
2022/11/28 19:24:15;;;;;;;4.22;3.83;;;;;;;4.36;100.00;98113.63;15297083;19;20014;-83
2022/11/28 19:29:39;;;;;;;5.25;4.57;;;;;;;4.37;100.00;98120.66;15285491;19;20018;-84
2022/11/28 19:35:07;;;;;;;4.93;4.43;;;;;;;4.39;100.00;98118.69;15285354;19;20339;-83
2022/11/28 19:40:31;;;;;;;6.18;4.45;;;;;;;4.39;100.00;98118.69;15286161;19;20011;-83
2022/11/28 20:04:43;;;;;;;5.70;4.95;;;;;;;4.44;100.00;98132.47;15272801;19;20014;-82
2022/11/28 20:22:00;;;;;;;7.00;5.95;;;;;;;4.41;100.00;98149.59;15315256;19;20061;-84
2022/11/28 20:27:20;;;;;;;7.07;6.20;;;;;;;4.42;100.00;98163.75;15285985;19;20015;-84
2022/11/28 20:32:44;;;;;;;6.38;5.78;;;;;;;4.40;100.00;98163.06;15282730;19;20475;-83
2022/11/28 20:38:10;;;;;;;7.47;6.32;;;;;;;4.35;100.00;98165.25;15280924;19;20023;-84
2022/11/28 20:43:46;;;;;;;7.03;6.32;;;;;;;4.32;100.00;98172.53;15281330;19;20015;-83
2022/11/28 20:49:16;;;;;;;10.43;6.65;;;;;;;4.25;100.00;98176.69;15303427;19;20021;-84
2022/11/28 20:54:40;;;;;;;7.75;6.95;;;;;;;4.25;100.00;98170.50;15293729;19;20024;-83
2022/11/28 21:00:10;;;;;;;8.18;7.38;;;;;;;4.22;100.00;98165.44;15291732;19;20043;-86
2022/11/28 21:05:38;;;;;;;7.70;6.75;;;;;;;4.20;100.00;98168.22;15290326;19;20022;-84
2022/11/28 21:11:06;;;;;;;9.98;7.32;;;;;;;4.19;100.00;98168.34;15307113;19;20018;-84
2022/11/28 21:16:54;;;;;;;9.07;7.50;;;;;;;4.13;100.00;98165.22;15277837;19;20025;-51
2022/11/28 21:22:18;;;;;;;8.13;7.32;;;;;;;4.10;100.00;98177.97;15257329;19;20014;-55
2022/11/28 21:27:44;;;;;;;8.27;7.45;;;;;;;4.07;100.00;98168.41;15267512;19;20021;-54
2022/11/28 21:33:13;;;;;;;8.48;7.57;;;;;;;4.08;100.00;98175.44;15274449;19;20078;-54
2022/11/28 21:38:39;;;;;;;8.52;7.55;;;;;;;4.06;100.00;98182.69;15271397;19;20082;-55
2022/11/28 21:44:03;;;;;;;8.27;7.47;;;;;;;4.08;100.00;98174.56;15270373;19;20019;-49
2022/11/28 21:49:31;;;;;;;8.40;7.60;;;;;;;4.06;100.00;98176.53;15267529;19;20538;-57
2022/11/28 21:54:56;;;;;;;8.25;7.40;;;;;;;4.07;100.00;98173.72;15264680;19;20020;-54
2022/11/28 22:00:22;;;;;;;9.02;8.13;;;;;;;4.08;100.00;98174.56;15263579;19;20033;-56
2022/11/28 22:06:15;;;;;;;9.43;7.97;;;;;;;4.01;100.00;98180.41;15266222;19;20011;-55
2022/11/28 22:11:40;;;;;;;9.25;8.18;;;;;;;4.01;100.00;98174.22;15267224;19;20030;-52
2022/11/28 22:17:11;;;;;;;9.90;8.90;;;;;;;4.01;100.00;98175.09;15266910;19;20014;-53
2022/11/28 22:22:39;;;;;;;10.52;8.65;;;;;;;4.00;100.00;98170.72;15265437;19;20025;-55
2022/11/28 22:28:03;;;;;;;9.13;8.23;;;;;;;4.00;100.00;98176.06;15260256;19;20094;-56
2022/11/28 22:33:28;;;;;;;9.05;8.13;;;;;;;4.00;100.00;98170.72;15266393;19;20873;-52
2022/11/28 22:38:57;;;;;;;10.00;8.98;;;;;;;4.00;100.00;98183.19;15269000;19;20019;-56
2022/11/28 22:44:22;;;;;;;10.30;9.27;;;;;;;4.00;100.00;98175.19;15280669;19;20018;-53
2022/11/28 22:49:48;;;;;;;10.23;8.95;;;;;;;3.98;100.00;98175.31;15274428;19;20090;-55
2022/11/28 22:55:15;;;;;;;10.18;8.98;;;;;;;4.00;100.00;98184.03;15284968;19;20038;-53
2022/11/28 23:00:41;;;;;;;10.50;9.50;;;;;;;4.01;100.00;98184.88;15268573;19;20018;-53
2022/11/28 23:06:07;;;;;;;10.10;9.10;;;;;;;4.00;100.00;98184.03;15276948;19;20661;-51
2022/11/28 23:11:41;;;;;;;11.10;9.38;;;;;;;4.00;100.00;98188.50;15276211;19;20042;-53
2022/11/28 23:17:06;;;;;;;10.40;9.30;;;;;;;4.00;100.00;98192.03;15275422;19;20035;-51
2022/11/28 23:22:31;;;;;;;11.70;9.90;;;;;;;3.97;100.00;98184.28;15273534;19;20019;-53
2022/11/28 23:27:58;;;;;;;10.90;9.80;;;;;;;3.98;100.00;98180.66;15274885;19;20085;-53
2022/11/28 23:33:23;;;;;;;11.35;10.13;;;;;;;3.99;100.00;98192.19;15277570;19;20022;-50
2022/11/28 23:38:49;;;;;;;12.02;10.20;;;;;;;3.94;100.00;98189.88;15278550;19;20010;-53
2022/11/28 23:44:18;;;;;;;10.77;9.68;;;;;;;3.96;100.00;98189.75;15277680;19;20395;-56
2022/11/28 23:49:43;;;;;;;11.00;9.90;;;;;;;3.94;100.00;98186.38;15277816;19;20527;-57
2022/11/28 23:55:07;;;;;;;11.23;9.63;;;;;;;3.95;100.00;98196.06;15276430;19;20023;-54
